sensor_id;sensor_type;location;lat;lon;timestamp;temperature;humidity
4207;DHT22;2117;47.972;7.830;2023-04-03T00:02:12;7.50;99.90
4207;DHT22;2117;47.972;7.830;2023-04-03T00:04:37;7.40;99.90
4207;DHT22;2117;47.972;7.830;2023-04-03T00:07:03;7.40;99.90
4207;DHT22;2117;47.972;7.830;2023-04-03T00:09:28;7.30;99.90
4207;DHT22;2117;47.972;7.830;2023-04-03T00:11:54;7.20;99.90
4207;DHT22;2117;47.972;7.830;2023-04-03T00:14:20;7.20;99.90
4207;DHT22;2117;47.972;7.830;2023-04-03T00:16:45;9.20;99.90
4207;DHT22;2117;47.972;7.830;2023-04-03T00:19:11;7.10;99.90
4207;DHT22;2117;47.972;7.830;2023-04-03T00:21:38;7.00;99.90
4207;DHT22;2117;47.972;7.830;2023-04-03T00:24:03;7.00;99.90
4207;DHT22;2117;47.972;7.830;2023-04-03T00:26:29;7.00;99.90
4207;DHT22;2117;47.972;7.830;2023-04-03T00:28:55;7.00;99.90
4207;DHT22;2117;47.972;7.830;2023-04-03T00:31:21;6.90;99.90
4207;DHT22;2117;47.972;7.830;2023-04-03T00:33:47;6.80;99.90
4207;DHT22;2117;47.972;7.830;2023-04-03T00:36:12;6.80;99.90
4207;DHT22;2117;47.972;7.830;2023-04-03T00:38:40;6.80;99.90
4207;DHT22;2117;47.972;7.830;2023-04-03T00:41:06;6.70;99.90
4207;DHT22;2117;47.972;7.830;2023-04-03T00:43:31;6.80;99.90
4207;DHT22;2117;47.972;7.830;2023-04-03T00:45:58;6.80;99.90
4207;DHT22;2117;47.972;7.830;2023-04-03T00:48:44;6.80;99.90
4207;DHT22;2117;47.972;7.830;2023-04-03T00:51:14;6.80;99.90
4207;DHT22;2117;47.972;7.830;2023-04-03T00:53:56;6.80;99.90
4207;DHT22;2117;47.972;7.830;2023-04-03T00:56:25;6.80;99.90
4207;DHT22;2117;47.972;7.830;2023-04-03T00:59:02;6.90;99.90
4207;DHT22;2117;47.972;7.830;2023-04-03T01:01:29;6.90;99.90
4207;DHT22;2117;47.972;7.830;2023-04-03T01:03:55;6.90;99.90
4207;DHT22;2117;47.972;7.830;2023-04-03T01:06:24;6.90;99.90
4207;DHT22;2117;47.972;7.830;2023-04-03T01:08:52;6.90;99.90
4207;DHT22;2117;47.972;7.830;2023-04-03T01:11:18;6.90;99.90
4207;DHT22;2117;47.972;7.830;2023-04-03T01:13:46;6.80;99.90
4207;DHT22;2117;47.972;7.830;2023-04-03T01:16:11;6.80;99.90
4207;DHT22;2117;47.972;7.830;2023-04-03T01:18:38;6.80;99.90
4207;DHT22;2117;47.972;7.830;2023-04-03T01:26:37;6.80;99.90
4207;DHT22;2117;47.972;7.830;2023-04-03T01:29:04;6.80;99.90
4207;DHT22;2117;47.972;7.830;2023-04-03T01:31:54;6.80;99.90
4207;DHT22;2117;47.972;7.830;2023-04-03T01:34:20;6.80;99.90
4207;DHT22;2117;47.972;7.830;2023-04-03T01:36:46;6.80;99.90
4207;DHT22;2117;47.972;7.830;2023-04-03T01:39:12;6.80;99.90
4207;DHT22;2117;47.972;7.830;2023-04-03T01:41:37;6.70;99.90
4207;DHT22;2117;47.972;7.830;2023-04-03T01:44:04;6.70;99.90
4207;DHT22;2117;47.972;7.830;2023-04-03T01:46:29;6.70;99.90
4207;DHT22;2117;47.972;7.830;2023-04-03T01:48:55;6.70;99.90
4207;DHT22;2117;47.972;7.830;2023-04-03T01:51:20;6.70;99.90
4207;DHT22;2117;47.972;7.830;2023-04-03T01:53:46;6.70;99.90
4207;DHT22;2117;47.972;7.830;2023-04-03T01:56:11;6.70;99.90
4207;DHT22;2117;47.972;7.830;2023-04-03T01:58:37;6.70;99.90
4207;DHT22;2117;47.972;7.830;2023-04-03T02:01:03;6.80;99.90
4207;DHT22;2117;47.972;7.830;2023-04-03T02:03:29;6.70;99.90
4207;DHT22;2117;47.972;7.830;2023-04-03T02:05:55;6.70;99.90
4207;DHT22;2117;47.972;7.830;2023-04-03T02:08:20;6.70;99.90
4207;DHT22;2117;47.972;7.830;2023-04-03T02:10:50;6.80;99.90
4207;DHT22;2117;47.972;7.830;2023-04-03T02:13:17;6.80;99.90
4207;DHT22;2117;47.972;7.830;2023-04-03T02:15:43;6.70;99.90
4207;DHT22;2117;47.972;7.830;2023-04-03T02:18:09;6.70;99.90
4207;DHT22;2117;47.972;7.830;2023-04-03T02:20:35;6.70;99.90
4207;DHT22;2117;47.972;7.830;2023-04-03T02:23:01;6.60;99.90
4207;DHT22;2117;47.972;7.830;2023-04-03T02:25:27;6.60;99.90
4207;DHT22;2117;47.972;7.830;2023-04-03T02:27:52;6.60;99.90
4207;DHT22;2117;47.972;7.830;2023-04-03T02:30:18;6.60;99.90
4207;DHT22;2117;47.972;7.830;2023-04-03T02:32:44;6.50;99.90
4207;DHT22;2117;47.972;7.830;2023-04-03T02:35:10;6.50;99.90
4207;DHT22;2117;47.972;7.830;2023-04-03T02:37:36;6.40;99.90
4207;DHT22;2117;47.972;7.830;2023-04-03T02:40:03;6.50;99.90
4207;DHT22;2117;47.972;7.830;2023-04-03T02:42:28;6.40;99.90
4207;DHT22;2117;47.972;7.830;2023-04-03T02:44:54;6.40;99.90
4207;DHT22;2117;47.972;7.830;2023-04-03T02:47:20;6.30;99.90
4207;DHT22;2117;47.972;7.830;2023-04-03T02:49:46;6.30;99.90
4207;DHT22;2117;47.972;7.830;2023-04-03T02:52:13;6.20;99.90
4207;DHT22;2117;47.972;7.830;2023-04-03T02:54:38;6.20;99.90
4207;DHT22;2117;47.972;7.830;2023-04-03T02:57:04;6.20;99.90
4207;DHT22;2117;47.972;7.830;2023-04-03T02:59:30;6.20;99.90
4207;DHT22;2117;47.972;7.830;2023-04-03T03:01:55;6.20;99.90
4207;DHT22;2117;47.972;7.830;2023-04-03T03:04:21;6.20;99.90
4207;DHT22;2117;47.972;7.830;2023-04-03T03:06:47;6.20;99.90
4207;DHT22;2117;47.972;7.830;2023-04-03T03:09:13;6.20;99.90
4207;DHT22;2117;47.972;7.830;2023-04-03T03:11:38;6.20;99.90
4207;DHT22;2117;47.972;7.830;2023-04-03T03:14:04;6.20;99.90
4207;DHT22;2117;47.972;7.830;2023-04-03T03:16:30;6.10;99.90
4207;DHT22;2117;47.972;7.830;2023-04-03T03:18:56;6.10;99.90
4207;DHT22;2117;47.972;7.830;2023-04-03T03:21:21;6.10;99.90
4207;DHT22;2117;47.972;7.830;2023-04-03T03:23:47;6.10;99.90
4207;DHT22;2117;47.972;7.830;2023-04-03T03:26:13;6.10;99.90
4207;DHT22;2117;47.972;7.830;2023-04-03T03:28:39;6.00;99.90
4207;DHT22;2117;47.972;7.830;2023-04-03T03:31:05;5.80;99.90
4207;DHT22;2117;47.972;7.830;2023-04-03T03:33:31;5.90;99.90
4207;DHT22;2117;47.972;7.830;2023-04-03T03:35:57;5.90;99.90
4207;DHT22;2117;47.972;7.830;2023-04-03T03:38:23;5.90;99.90
4207;DHT22;2117;47.972;7.830;2023-04-03T03:40:49;5.90;99.90
4207;DHT22;2117;47.972;7.830;2023-04-03T03:43:16;5.90;99.90
4207;DHT22;2117;47.972;7.830;2023-04-03T03:45:42;5.70;99.90
4207;DHT22;2117;47.972;7.830;2023-04-03T03:48:07;5.70;99.90
4207;DHT22;2117;47.972;7.830;2023-04-03T03:50:33;5.70;99.90
4207;DHT22;2117;47.972;7.830;2023-04-03T03:52:59;5.80;99.90
4207;DHT22;2117;47.972;7.830;2023-04-03T03:55:24;5.80;99.90
4207;DHT22;2117;47.972;7.830;2023-04-03T03:57:50;5.90;99.90
4207;DHT22;2117;47.972;7.830;2023-04-03T04:00:16;6.00;99.90
4207;DHT22;2117;47.972;7.830;2023-04-03T04:02:42;6.00;99.90
4207;DHT22;2117;47.972;7.830;2023-04-03T04:05:08;6.00;99.90
4207;DHT22;2117;47.972;7.830;2023-04-03T04:07:34;6.10;99.90
4207;DHT22;2117;47.972;7.830;2023-04-03T04:09:59;6.00;99.90
4207;DHT22;2117;47.972;7.830;2023-04-03T04:12:25;6.10;99.90
4207;DHT22;2117;47.972;7.830;2023-04-03T04:14:50;6.10;99.90
4207;DHT22;2117;47.972;7.830;2023-04-03T04:17:16;6.00;99.90
4207;DHT22;2117;47.972;7.830;2023-04-03T04:19:41;6.00;99.90
4207;DHT22;2117;47.972;7.830;2023-04-03T04:22:07;6.00;99.90
4207;DHT22;2117;47.972;7.830;2023-04-03T04:24:33;6.00;99.90
4207;DHT22;2117;47.972;7.830;2023-04-03T04:26:58;6.00;99.90
4207;DHT22;2117;47.972;7.830;2023-04-03T04:29:24;6.00;99.90
4207;DHT22;2117;47.972;7.830;2023-04-03T04:31:50;6.00;99.90
4207;DHT22;2117;47.972;7.830;2023-04-03T04:34:15;6.10;99.90
4207;DHT22;2117;47.972;7.830;2023-04-03T04:36:41;6.10;99.90
4207;DHT22;2117;47.972;7.830;2023-04-03T04:39:06;6.10;99.90
4207;DHT22;2117;47.972;7.830;2023-04-03T04:41:32;6.20;99.90
4207;DHT22;2117;47.972;7.830;2023-04-03T04:43:58;6.20;99.90
4207;DHT22;2117;47.972;7.830;2023-04-03T04:46:24;6.10;99.90
4207;DHT22;2117;47.972;7.830;2023-04-03T04:48:50;6.10;99.90
4207;DHT22;2117;47.972;7.830;2023-04-03T04:51:16;6.10;99.90
4207;DHT22;2117;47.972;7.830;2023-04-03T04:53:42;6.10;99.90
4207;DHT22;2117;47.972;7.830;2023-04-03T04:56:08;6.10;99.90
4207;DHT22;2117;47.972;7.830;2023-04-03T04:58:33;6.10;99.90
4207;DHT22;2117;47.972;7.830;2023-04-03T05:01:03;6.10;99.90
4207;DHT22;2117;47.972;7.830;2023-04-03T05:03:30;6.10;99.90
4207;DHT22;2117;47.972;7.830;2023-04-03T05:05:55;6.00;99.90
4207;DHT22;2117;47.972;7.830;2023-04-03T05:08:21;6.00;99.90
4207;DHT22;2117;47.972;7.830;2023-04-03T05:10:47;6.00;99.90
4207;DHT22;2117;47.972;7.830;2023-04-03T05:13:13;6.10;99.90
4207;DHT22;2117;47.972;7.830;2023-04-03T05:15:38;6.10;99.90
4207;DHT22;2117;47.972;7.830;2023-04-03T05:18:04;6.10;99.90
4207;DHT22;2117;47.972;7.830;2023-04-03T05:20:31;6.00;99.90
4207;DHT22;2117;47.972;7.830;2023-04-03T05:22:56;6.10;99.90
4207;DHT22;2117;47.972;7.830;2023-04-03T05:25:22;6.10;99.90
4207;DHT22;2117;47.972;7.830;2023-04-03T05:27:48;6.10;99.90
4207;DHT22;2117;47.972;7.830;2023-04-03T05:30:13;6.10;99.90
4207;DHT22;2117;47.972;7.830;2023-04-03T05:32:39;6.10;99.90
4207;DHT22;2117;47.972;7.830;2023-04-03T05:35:06;6.10;99.90
4207;DHT22;2117;47.972;7.830;2023-04-03T05:37:33;6.10;99.90
4207;DHT22;2117;47.972;7.830;2023-04-03T05:39:58;6.10;99.90
4207;DHT22;2117;47.972;7.830;2023-04-03T05:42:24;6.10;99.90
4207;DHT22;2117;47.972;7.830;2023-04-03T05:44:49;6.10;99.90
4207;DHT22;2117;47.972;7.830;2023-04-03T05:47:16;6.20;99.90
4207;DHT22;2117;47.972;7.830;2023-04-03T05:49:41;6.20;99.90
4207;DHT22;2117;47.972;7.830;2023-04-03T05:52:22;6.20;99.90
4207;DHT22;2117;47.972;7.830;2023-04-03T05:54:48;6.30;99.90
4207;DHT22;2117;47.972;7.830;2023-04-03T05:57:15;6.30;99.90
4207;DHT22;2117;47.972;7.830;2023-04-03T05:59:42;6.30;99.90
4207;DHT22;2117;47.972;7.830;2023-04-03T06:02:10;6.40;99.90
4207;DHT22;2117;47.972;7.830;2023-04-03T06:04:36;6.40;99.90
4207;DHT22;2117;47.972;7.830;2023-04-03T06:07:02;6.40;99.90
4207;DHT22;2117;47.972;7.830;2023-04-03T06:09:28;6.40;99.90
4207;DHT22;2117;47.972;7.830;2023-04-03T06:11:57;6.50;99.90
4207;DHT22;2117;47.972;7.830;2023-04-03T06:14:24;6.50;99.90
4207;DHT22;2117;47.972;7.830;2023-04-03T06:16:51;6.50;99.90
4207;DHT22;2117;47.972;7.830;2023-04-03T06:19:17;6.60;99.90
4207;DHT22;2117;47.972;7.830;2023-04-03T06:21:42;6.70;99.90
4207;DHT22;2117;47.972;7.830;2023-04-03T06:24:14;6.80;99.90
4207;DHT22;2117;47.972;7.830;2023-04-03T06:26:40;6.70;99.90
4207;DHT22;2117;47.972;7.830;2023-04-03T06:29:06;6.60;99.90
4207;DHT22;2117;47.972;7.830;2023-04-03T06:31:32;6.60;99.90
4207;DHT22;2117;47.972;7.830;2023-04-03T06:33:58;6.60;99.90
4207;DHT22;2117;47.972;7.830;2023-04-03T06:36:23;6.70;99.90
4207;DHT22;2117;47.972;7.830;2023-04-03T06:38:49;6.70;99.90
4207;DHT22;2117;47.972;7.830;2023-04-03T06:41:15;6.80;99.90
4207;DHT22;2117;47.972;7.830;2023-04-03T06:43:42;6.80;99.90
4207;DHT22;2117;47.972;7.830;2023-04-03T06:46:14;6.80;99.90
4207;DHT22;2117;47.972;7.830;2023-04-03T06:48:40;6.90;99.90
4207;DHT22;2117;47.972;7.830;2023-04-03T06:51:05;6.90;99.90
4207;DHT22;2117;47.972;7.830;2023-04-03T06:53:31;7.00;99.90
4207;DHT22;2117;47.972;7.830;2023-04-03T06:55:56;7.00;99.90
4207;DHT22;2117;47.972;7.830;2023-04-03T06:58:22;7.10;99.90
4207;DHT22;2117;47.972;7.830;2023-04-03T07:00:47;7.10;99.90
4207;DHT22;2117;47.972;7.830;2023-04-03T07:03:13;7.20;99.90
4207;DHT22;2117;47.972;7.830;2023-04-03T07:05:38;7.30;99.90
4207;DHT22;2117;47.972;7.830;2023-04-03T07:08:04;7.30;99.90
4207;DHT22;2117;47.972;7.830;2023-04-03T07:10:29;7.30;99.90
4207;DHT22;2117;47.972;7.830;2023-04-03T07:12:56;7.30;99.90
4207;DHT22;2117;47.972;7.830;2023-04-03T07:15:21;7.40;99.90
4207;DHT22;2117;47.972;7.830;2023-04-03T07:17:47;7.50;99.90
4207;DHT22;2117;47.972;7.830;2023-04-03T07:20:12;7.50;99.90
4207;DHT22;2117;47.972;7.830;2023-04-03T07:22:38;7.50;99.90
4207;DHT22;2117;47.972;7.830;2023-04-03T07:25:04;7.50;99.90
4207;DHT22;2117;47.972;7.830;2023-04-03T07:27:32;7.50;99.90
4207;DHT22;2117;47.972;7.830;2023-04-03T07:29:57;7.50;99.90
4207;DHT22;2117;47.972;7.830;2023-04-03T07:32:23;7.50;99.90
4207;DHT22;2117;47.972;7.830;2023-04-03T07:34:49;7.50;99.90
4207;DHT22;2117;47.972;7.830;2023-04-03T07:37:15;7.50;99.90
4207;DHT22;2117;47.972;7.830;2023-04-03T07:39:43;7.50;99.90
4207;DHT22;2117;47.972;7.830;2023-04-03T07:42:10;7.50;99.90
4207;DHT22;2117;47.972;7.830;2023-04-03T07:44:35;7.50;99.90
4207;DHT22;2117;47.972;7.830;2023-04-03T07:47:01;7.60;99.90
4207;DHT22;2117;47.972;7.830;2023-04-03T07:49:27;7.60;99.90
4207;DHT22;2117;47.972;7.830;2023-04-03T07:51:52;7.60;99.90
4207;DHT22;2117;47.972;7.830;2023-04-03T07:54:18;7.60;99.90
4207;DHT22;2117;47.972;7.830;2023-04-03T07:56:44;7.70;99.90
4207;DHT22;2117;47.972;7.830;2023-04-03T07:59:10;7.80;99.90
4207;DHT22;2117;47.972;7.830;2023-04-03T08:01:37;7.80;99.90
4207;DHT22;2117;47.972;7.830;2023-04-03T08:04:02;7.90;99.90
4207;DHT22;2117;47.972;7.830;2023-04-03T08:06:28;8.00;99.90
4207;DHT22;2117;47.972;7.830;2023-04-03T08:08:58;8.00;99.90
4207;DHT22;2117;47.972;7.830;2023-04-03T08:11:24;8.10;99.90
4207;DHT22;2117;47.972;7.830;2023-04-03T08:13:52;8.20;99.90
4207;DHT22;2117;47.972;7.830;2023-04-03T08:16:20;8.30;99.90
4207;DHT22;2117;47.972;7.830;2023-04-03T08:18:47;8.40;99.90
4207;DHT22;2117;47.972;7.830;2023-04-03T08:21:13;8.40;99.90
4207;DHT22;2117;47.972;7.830;2023-04-03T08:23:40;8.40;99.90
4207;DHT22;2117;47.972;7.830;2023-04-03T08:26:09;8.30;99.90
4207;DHT22;2117;47.972;7.830;2023-04-03T08:28:34;8.30;99.90
4207;DHT22;2117;47.972;7.830;2023-04-03T08:31:05;8.30;99.90
4207;DHT22;2117;47.972;7.830;2023-04-03T08:33:31;8.30;99.90
4207;DHT22;2117;47.972;7.830;2023-04-03T08:35:57;8.10;99.90
4207;DHT22;2117;47.972;7.830;2023-04-03T08:38:23;8.30;99.90
4207;DHT22;2117;47.972;7.830;2023-04-03T08:41:01;8.40;99.90
4207;DHT22;2117;47.972;7.830;2023-04-03T08:43:56;8.50;99.90
4207;DHT22;2117;47.972;7.830;2023-04-03T08:46:26;8.50;99.90
4207;DHT22;2117;47.972;7.830;2023-04-03T08:48:54;8.50;99.90
4207;DHT22;2117;47.972;7.830;2023-04-03T08:51:21;8.50;99.90
4207;DHT22;2117;47.972;7.830;2023-04-03T08:54:04;8.60;99.90
4207;DHT22;2117;47.972;7.830;2023-04-03T08:56:33;8.70;99.90
4207;DHT22;2117;47.972;7.830;2023-04-03T08:59:05;8.70;99.90
4207;DHT22;2117;47.972;7.830;2023-04-03T09:01:34;8.70;99.90
4207;DHT22;2117;47.972;7.830;2023-04-03T09:04:01;8.70;99.90
4207;DHT22;2117;47.972;7.830;2023-04-03T09:06:30;8.60;99.90
4207;DHT22;2117;47.972;7.830;2023-04-03T09:12:00;8.70;99.90
4207;DHT22;2117;47.972;7.830;2023-04-03T09:14:41;8.80;99.90
4207;DHT22;2117;47.972;7.830;2023-04-03T09:20:02;10.30;99.90
4207;DHT22;2117;47.972;7.830;2023-04-03T09:22:32;10.30;99.90
4207;DHT22;2117;47.972;7.830;2023-04-03T09:25:07;10.20;99.90
4207;DHT22;2117;47.972;7.830;2023-04-03T09:27:34;10.10;99.90
4207;DHT22;2117;47.972;7.830;2023-04-03T09:29:59;10.00;99.90
4207;DHT22;2117;47.972;7.830;2023-04-03T09:32:29;9.90;99.90
4207;DHT22;2117;47.972;7.830;2023-04-03T09:34:59;9.90;99.90
4207;DHT22;2117;47.972;7.830;2023-04-03T09:37:36;9.90;99.90
4207;DHT22;2117;47.972;7.830;2023-04-03T09:40:02;9.80;99.90
4207;DHT22;2117;47.972;7.830;2023-04-03T09:42:30;9.70;99.90
4207;DHT22;2117;47.972;7.830;2023-04-03T09:44:58;9.70;99.90
4207;DHT22;2117;47.972;7.830;2023-04-03T09:47:29;9.70;99.90
4207;DHT22;2117;47.972;7.830;2023-04-03T09:52:41;9.50;99.90
4207;DHT22;2117;47.972;7.830;2023-04-03T09:55:17;9.40;99.90
4207;DHT22;2117;47.972;7.830;2023-04-03T09:57:45;9.30;99.90
4207;DHT22;2117;47.972;7.830;2023-04-03T10:00:37;9.30;99.90
4207;DHT22;2117;47.972;7.830;2023-04-03T10:03:03;9.20;99.90
4207;DHT22;2117;47.972;7.830;2023-04-03T10:05:35;9.20;99.90
4207;DHT22;2117;47.972;7.830;2023-04-03T10:10:40;9.10;99.90
4207;DHT22;2117;47.972;7.830;2023-04-03T10:13:13;9.20;99.90
4207;DHT22;2117;47.972;7.830;2023-04-03T10:15:43;9.20;99.90
4207;DHT22;2117;47.972;7.830;2023-04-03T10:18:35;9.10;99.90
4207;DHT22;2117;47.972;7.830;2023-04-03T10:22:10;9.10;99.90
4207;DHT22;2117;47.972;7.830;2023-04-03T10:24:13;9.20;99.90
4207;DHT22;2117;47.972;7.830;2023-04-03T10:32:26;9.10;99.90
4207;DHT22;2117;47.972;7.830;2023-04-03T10:35:12;9.10;99.90
4207;DHT22;2117;47.972;7.830;2023-04-03T10:38:14;9.20;99.90
4207;DHT22;2117;47.972;7.830;2023-04-03T10:46:15;9.50;99.90
4207;DHT22;2117;47.972;7.830;2023-04-03T10:49:14;9.40;99.90
4207;DHT22;2117;47.972;7.830;2023-04-03T10:51:45;9.40;99.90
4207;DHT22;2117;47.972;7.830;2023-04-03T10:54:32;9.40;99.90
4207;DHT22;2117;47.972;7.830;2023-04-03T10:57:06;9.40;99.90
4207;DHT22;2117;47.972;7.830;2023-04-03T10:59:54;9.50;99.90
4207;DHT22;2117;47.972;7.830;2023-04-03T11:02:35;9.50;99.90
4207;DHT22;2117;47.972;7.830;2023-04-03T11:05:04;9.50;99.90
4207;DHT22;2117;47.972;7.830;2023-04-03T11:07:39;9.40;99.90
4207;DHT22;2117;47.972;7.830;2023-04-03T11:10:14;9.50;99.90
4207;DHT22;2117;47.972;7.830;2023-04-03T11:12:46;9.60;99.90
4207;DHT22;2117;47.972;7.830;2023-04-03T11:15:16;9.60;99.90
4207;DHT22;2117;47.972;7.830;2023-04-03T11:17:50;9.60;99.90
4207;DHT22;2117;47.972;7.830;2023-04-03T11:20:22;9.60;99.90
4207;DHT22;2117;47.972;7.830;2023-04-03T11:22:58;9.50;99.90
4207;DHT22;2117;47.972;7.830;2023-04-03T11:25:26;9.40;99.90
4207;DHT22;2117;47.972;7.830;2023-04-03T11:28:13;9.50;99.90
4207;DHT22;2117;47.972;7.830;2023-04-03T11:33:54;9.50;99.90
4207;DHT22;2117;47.972;7.830;2023-04-03T11:36:26;9.50;99.90
4207;DHT22;2117;47.972;7.830;2023-04-03T11:38:56;9.60;99.90
4207;DHT22;2117;47.972;7.830;2023-04-03T11:41:31;9.80;99.90
4207;DHT22;2117;47.972;7.830;2023-04-03T11:44:04;9.80;99.90
4207;DHT22;2117;47.972;7.830;2023-04-03T11:46:49;9.80;99.90
4207;DHT22;2117;47.972;7.830;2023-04-03T12:16:33;11.60;99.90
4207;DHT22;2117;47.972;7.830;2023-04-03T12:24:31;11.80;99.90
4207;DHT22;2117;47.972;7.830;2023-04-03T12:29:33;11.40;98.40
4207;DHT22;2117;47.972;7.830;2023-04-03T12:43:36;10.70;99.90
4207;DHT22;2117;47.972;7.830;2023-04-03T12:46:17;10.60;99.90
4207;DHT22;2117;47.972;7.830;2023-04-03T12:48:59;10.60;99.90
4207;DHT22;2117;47.972;7.830;2023-04-03T12:51:41;10.50;99.90
4207;DHT22;2117;47.972;7.830;2023-04-03T12:54:34;10.40;99.70
4207;DHT22;2117;47.972;7.830;2023-04-03T12:57:15;10.40;98.80
4207;DHT22;2117;47.972;7.830;2023-04-03T12:59:42;10.20;98.80
4207;DHT22;2117;47.972;7.830;2023-04-03T13:02:27;10.20;99.90
4207;DHT22;2117;47.972;7.830;2023-04-03T13:05:08;10.30;99.90
4207;DHT22;2117;47.972;7.830;2023-04-03T13:07:37;10.30;99.90
4207;DHT22;2117;47.972;7.830;2023-04-03T13:12:48;10.40;99.90
4207;DHT22;2117;47.972;7.830;2023-04-03T13:15:19;10.40;99.90
4207;DHT22;2117;47.972;7.830;2023-04-03T13:17:46;10.40;99.90
4207;DHT22;2117;47.972;7.830;2023-04-03T13:23:05;10.40;99.90
4207;DHT22;2117;47.972;7.830;2023-04-03T13:25:33;10.40;99.90
4207;DHT22;2117;47.972;7.830;2023-04-03T13:28:01;10.10;99.90
4207;DHT22;2117;47.972;7.830;2023-04-03T13:30:33;10.00;99.90
4207;DHT22;2117;47.972;7.830;2023-04-03T13:33:02;10.10;99.90
4207;DHT22;2117;47.972;7.830;2023-04-03T13:35:39;10.00;99.90
4207;DHT22;2117;47.972;7.830;2023-04-03T13:38:23;10.00;99.90
4207;DHT22;2117;47.972;7.830;2023-04-03T13:43:21;10.10;99.90
4207;DHT22;2117;47.972;7.830;2023-04-03T13:46:03;10.00;99.40
4207;DHT22;2117;47.972;7.830;2023-04-03T13:48:40;10.00;99.60
4207;DHT22;2117;47.972;7.830;2023-04-03T13:53:33;10.10;99.80
4207;DHT22;2117;47.972;7.830;2023-04-03T13:56:08;10.10;99.90
4207;DHT22;2117;47.972;7.830;2023-04-03T13:58:36;10.10;99.90
4207;DHT22;2117;47.972;7.830;2023-04-03T14:01:07;10.20;99.90
4207;DHT22;2117;47.972;7.830;2023-04-03T14:03:52;10.30;99.90
4207;DHT22;2117;47.972;7.830;2023-04-03T14:06:19;10.20;99.20
4207;DHT22;2117;47.972;7.830;2023-04-03T14:08:46;10.10;99.80
4207;DHT22;2117;47.972;7.830;2023-04-03T14:11:18;10.10;99.80
4207;DHT22;2117;47.972;7.830;2023-04-03T14:13:46;10.10;99.90
4207;DHT22;2117;47.972;7.830;2023-04-03T14:16:23;10.00;99.90
4207;DHT22;2117;47.972;7.830;2023-04-03T14:18:51;10.00;99.90
4207;DHT22;2117;47.972;7.830;2023-04-03T14:21:19;10.10;99.90
4207;DHT22;2117;47.972;7.830;2023-04-03T14:23:45;10.10;99.40
4207;DHT22;2117;47.972;7.830;2023-04-03T14:26:17;10.10;99.10
4207;DHT22;2117;47.972;7.830;2023-04-03T14:28:45;9.90;99.70
4207;DHT22;2117;47.972;7.830;2023-04-03T14:31:12;10.00;98.70
4207;DHT22;2117;47.972;7.830;2023-04-03T14:33:38;9.90;99.90
4207;DHT22;2117;47.972;7.830;2023-04-03T14:36:16;9.90;99.90
4207;DHT22;2117;47.972;7.830;2023-04-03T14:38:43;9.90;99.90
4207;DHT22;2117;47.972;7.830;2023-04-03T14:41:12;9.80;99.90
4207;DHT22;2117;47.972;7.830;2023-04-03T14:43:38;9.80;99.90
4207;DHT22;2117;47.972;7.830;2023-04-03T14:46:05;9.80;99.90
4207;DHT22;2117;47.972;7.830;2023-04-03T14:48:34;9.80;99.90
4207;DHT22;2117;47.972;7.830;2023-04-03T14:50:59;9.60;99.90
4207;DHT22;2117;47.972;7.830;2023-04-03T14:53:25;9.60;99.70
4207;DHT22;2117;47.972;7.830;2023-04-03T14:55:52;9.70;99.90
4207;DHT22;2117;47.972;7.830;2023-04-03T14:58:19;9.70;99.50
4207;DHT22;2117;47.972;7.830;2023-04-03T15:00:45;9.70;99.90
4207;DHT22;2117;47.972;7.830;2023-04-03T15:03:16;9.60;99.10
4207;DHT22;2117;47.972;7.830;2023-04-03T15:05:43;9.50;99.30
4207;DHT22;2117;47.972;7.830;2023-04-03T15:08:22;9.30;99.40
4207;DHT22;2117;47.972;7.830;2023-04-03T15:10:49;9.40;99.90
4207;DHT22;2117;47.972;7.830;2023-04-03T15:13:15;9.30;99.90
4207;DHT22;2117;47.972;7.830;2023-04-03T15:15:41;9.30;99.90
4207;DHT22;2117;47.972;7.830;2023-04-03T15:18:27;9.30;99.90
4207;DHT22;2117;47.972;7.830;2023-04-03T15:20:56;9.30;99.40
4207;DHT22;2117;47.972;7.830;2023-04-03T15:23:22;9.30;99.70
4207;DHT22;2117;47.972;7.830;2023-04-03T15:25:52;9.40;99.40
4207;DHT22;2117;47.972;7.830;2023-04-03T15:28:26;9.30;99.10
4207;DHT22;2117;47.972;7.830;2023-04-03T15:30:53;9.30;98.70
4207;DHT22;2117;47.972;7.830;2023-04-03T15:33:19;9.20;98.70
4207;DHT22;2117;47.972;7.830;2023-04-03T15:35:45;9.10;98.70
4207;DHT22;2117;47.972;7.830;2023-04-03T15:38:10;9.10;99.30
4207;DHT22;2117;47.972;7.830;2023-04-03T15:40:36;9.20;99.40
4207;DHT22;2117;47.972;7.830;2023-04-03T15:43:03;9.20;98.60
4207;DHT22;2117;47.972;7.830;2023-04-03T15:45:29;9.30;99.20
4207;DHT22;2117;47.972;7.830;2023-04-03T15:47:56;9.40;99.90
4207;DHT22;2117;47.972;7.830;2023-04-03T15:50:22;9.60;99.90
4207;DHT22;2117;47.972;7.830;2023-04-03T15:52:49;9.70;99.50
4207;DHT22;2117;47.972;7.830;2023-04-03T15:55:20;9.60;98.40
4207;DHT22;2117;47.972;7.830;2023-04-03T15:57:46;9.60;99.10
4207;DHT22;2117;47.972;7.830;2023-04-03T16:00:12;9.50;99.20
4207;DHT22;2117;47.972;7.830;2023-04-03T16:02:38;9.50;98.50
4207;DHT22;2117;47.972;7.830;2023-04-03T16:05:04;9.40;99.00
4207;DHT22;2117;47.972;7.830;2023-04-03T16:07:30;9.30;98.40
4207;DHT22;2117;47.972;7.830;2023-04-03T16:09:55;9.20;98.30
4207;DHT22;2117;47.972;7.830;2023-04-03T16:14:47;9.00;97.50
4207;DHT22;2117;47.972;7.830;2023-04-03T16:17:13;9.00;98.50
4207;DHT22;2117;47.972;7.830;2023-04-03T16:19:38;9.00;97.30
4207;DHT22;2117;47.972;7.830;2023-04-03T16:22:04;8.90;97.90
4207;DHT22;2117;47.972;7.830;2023-04-03T16:26:57;8.80;95.50
4207;DHT22;2117;47.972;7.830;2023-04-03T16:29:23;8.80;97.50
4207;DHT22;2117;47.972;7.830;2023-04-03T16:31:49;8.80;97.70
4207;DHT22;2117;47.972;7.830;2023-04-03T16:34:15;8.80;98.20
4207;DHT22;2117;47.972;7.830;2023-04-03T16:36:41;8.80;97.80
4207;DHT22;2117;47.972;7.830;2023-04-03T16:39:06;8.70;97.30
4207;DHT22;2117;47.972;7.830;2023-04-03T16:41:35;8.60;96.60
4207;DHT22;2117;47.972;7.830;2023-04-03T16:44:00;8.70;97.10
4207;DHT22;2117;47.972;7.830;2023-04-03T16:46:26;8.60;97.50
4207;DHT22;2117;47.972;7.830;2023-04-03T16:48:51;8.50;97.40
4207;DHT22;2117;47.972;7.830;2023-04-03T16:51:17;8.40;97.20
4207;DHT22;2117;47.972;7.830;2023-04-03T16:53:42;8.50;97.70
4207;DHT22;2117;47.972;7.830;2023-04-03T16:56:08;8.50;98.00
4207;DHT22;2117;47.972;7.830;2023-04-03T16:58:34;8.50;98.10
4207;DHT22;2117;47.972;7.830;2023-04-03T17:01:09;8.40;98.00
4207;DHT22;2117;47.972;7.830;2023-04-03T17:03:34;8.40;97.70
4207;DHT22;2117;47.972;7.830;2023-04-03T17:06:00;8.60;98.60
4207;DHT22;2117;47.972;7.830;2023-04-03T17:10:52;8.40;98.20
4207;DHT22;2117;47.972;7.830;2023-04-03T17:18:11;8.30;98.30
4207;DHT22;2117;47.972;7.830;2023-04-03T17:20:37;8.30;98.20
4207;DHT22;2117;47.972;7.830;2023-04-03T17:23:04;8.20;99.20
4207;DHT22;2117;47.972;7.830;2023-04-03T17:25:30;8.20;98.90
4207;DHT22;2117;47.972;7.830;2023-04-03T17:27:56;8.20;99.90
4207;DHT22;2117;47.972;7.830;2023-04-03T17:30:22;8.20;99.20
4207;DHT22;2117;47.972;7.830;2023-04-03T17:32:47;8.10;98.00
4207;DHT22;2117;47.972;7.830;2023-04-03T17:35:13;8.10;99.10
4207;DHT22;2117;47.972;7.830;2023-04-03T17:37:39;8.10;98.80
4207;DHT22;2117;47.972;7.830;2023-04-03T17:40:05;8.10;99.70
4207;DHT22;2117;47.972;7.830;2023-04-03T17:42:31;8.00;98.80
4207;DHT22;2117;47.972;7.830;2023-04-03T17:44:57;8.00;99.50
4207;DHT22;2117;47.972;7.830;2023-04-03T17:47:22;8.00;99.20
4207;DHT22;2117;47.972;7.830;2023-04-03T17:49:50;8.00;99.00
4207;DHT22;2117;47.972;7.830;2023-04-03T17:52:15;7.90;98.90
4207;DHT22;2117;47.972;7.830;2023-04-03T17:54:41;7.90;99.30
4207;DHT22;2117;47.972;7.830;2023-04-03T17:57:07;7.90;98.60
4207;DHT22;2117;47.972;7.830;2023-04-03T17:59:33;7.80;98.40
4207;DHT22;2117;47.972;7.830;2023-04-03T18:01:58;7.90;99.50
4207;DHT22;2117;47.972;7.830;2023-04-03T18:04:24;8.00;99.10
4207;DHT22;2117;47.972;7.830;2023-04-03T18:06:51;8.00;98.40